Portada
METAR-TAF:

METAR-TAF

Aeroports :

Karachi, Pakistan

latitud: 24-54N, longitud: 067-08E, altitud: 21 m

Observació

L'informe es va fer fa 1 hora i 58 minuts, a les 22:00 UTC
Vent 10 kt del Nord
Temperatura 22°C
Humitat 46%
Pressió 1015 hPa
Visibilitat: 5000 m

METAR: OPKC 212200Z 01010KT 5000 NSC 22/10 Q1015 NOSIG

Hora: 04:58 (23:58 UTC)

Pronòstic

L'informe es va fer fa 2 hores i 28 minuts, a les 21:30 UTC
Pronòstic vàlid del 22 a les 00 UTC al 23 a les 06 UTC
Vent 10 kt del Nord-Est amb ràfegues de 20 kt
Visibilitat: 7000 m
Temporalment
l' 22 a les 00 UTC al 22 a les 04 UTC
Vent 8 kt del Nord-Est
Visibilitat: 4000 m
calitja
Evolucionant progressivament
l' 22 a les 18 UTC al 22 a les 20 UTC
Vent 8 kt del Nord/Nord-Est
Visibilitat: 5000 m
calitja

TAF: OPKC 212130Z 2200/2306 04010G20KT 7000 NSC TEMPO 2200/2204 04008KT 4000 HZ NSC BECMG 2218/2220 03008KT 5000 HZ NSC

Observacions i pronòstics meteorològics de més de 4000 aeroports (METAR i TAF).

Les estacions disponibles són els punts grocs i vermells al mapa.

Posi el ratolí al punt desitjat per veure el nom de l'estació.

Feu clic per veure les observacions i els pronòstics meteorològics.

Per canviar el mapa: feu clic els botons verds amb una creu de color negre per apropar; al botó verd amb un guió per allunyar la imatge; o en les fletxes verdes per a mapes adjacents.


METAR-TAF: